sensor_id;sensor_type;location;lat;lon;timestamp;pressure;altitude;pressure_sealevel;temperature;humidity
20394;BME280;10356;50.544;9.642;2023-08-06T00:00:28;97401.81;;;15.10;100.00
20394;BME280;10356;50.544;9.642;2023-08-06T00:02:54;97402.16;;;15.07;100.00
20394;BME280;10356;50.544;9.642;2023-08-06T00:05:21;97413.97;;;15.03;100.00
20394;BME280;10356;50.544;9.642;2023-08-06T00:07:47;97413.00;;;15.04;100.00
20394;BME280;10356;50.544;9.642;2023-08-06T00:10:16;97417.25;;;15.05;100.00
20394;BME280;10356;50.544;9.642;2023-08-06T00:12:42;97419.06;;;15.04;100.00
20394;BME280;10356;50.544;9.642;2023-08-06T00:15:09;97412.16;;;15.03;100.00
20394;BME280;10356;50.544;9.642;2023-08-06T00:17:36;97409.38;;;15.05;100.00
20394;BME280;10356;50.544;9.642;2023-08-06T00:20:04;97407.56;;;15.05;100.00
20394;BME280;10356;50.544;9.642;2023-08-06T00:22:31;97409.38;;;15.05;100.00
20394;BME280;10356;50.544;9.642;2023-08-06T00:24:58;97404.44;;;15.10;100.00
20394;BME280;10356;50.544;9.642;2023-08-06T00:27:26;97418.88;;;15.14;100.00
20394;BME280;10356;50.544;9.642;2023-08-06T00:29:52;97412.97;;;15.12;100.00
20394;BME280;10356;50.544;9.642;2023-08-06T00:32:19;97409.34;;;15.13;100.00
20394;BME280;10356;50.544;9.642;2023-08-06T00:34:45;97404.75;;;15.15;100.00
20394;BME280;10356;50.544;9.642;2023-08-06T00:37:12;97400.31;;;15.15;100.00
20394;BME280;10356;50.544;9.642;2023-08-06T00:39:38;97395.72;;;15.18;100.00
20394;BME280;10356;50.544;9.642;2023-08-06T00:42:05;97395.91;;;15.16;100.00
20394;BME280;10356;50.544;9.642;2023-08-06T00:44:33;97388.69;;;15.18;100.00
20394;BME280;10356;50.544;9.642;2023-08-06T00:46:59;97394.91;;;15.17;100.00
20394;BME280;10356;50.544;9.642;2023-08-06T00:49:26;97393.09;;;15.18;100.00
20394;BME280;10356;50.544;9.642;2023-08-06T00:51:53;97390.31;;;15.19;100.00
20394;BME280;10356;50.544;9.642;2023-08-06T00:54:19;97389.34;;;15.20;100.00
20394;BME280;10356;50.544;9.642;2023-08-06T00:56:46;97376.22;;;15.20;100.00
20394;BME280;10356;50.544;9.642;2023-08-06T00:59:14;97374.56;;;15.19;100.00
20394;BME280;10356;50.544;9.642;2023-08-06T01:01:41;97366.03;;;15.17;100.00
20394;BME280;10356;50.544;9.642;2023-08-06T01:04:08;97368.66;;;15.17;100.00
20394;BME280;10356;50.544;9.642;2023-08-06T01:06:39;97365.06;;;15.18;100.00
20394;BME280;10356;50.544;9.642;2023-08-06T01:09:14;97348.31;;;15.19;100.00
20394;BME280;10356;50.544;9.642;2023-08-06T01:11:50;97358.03;;;15.19;100.00
20394;BME280;10356;50.544;9.642;2023-08-06T01:14:24;97366.03;;;15.17;100.00
20394;BME280;10356;50.544;9.642;2023-08-06T01:16:57;97366.38;;;15.14;100.00
20394;BME280;10356;50.544;9.642;2023-08-06T01:19:24;97364.41;;;15.16;100.00
20394;BME280;10356;50.544;9.642;2023-08-06T01:21:52;97360.78;;;15.17;100.00
20394;BME280;10356;50.544;9.642;2023-08-06T01:24:19;97359.63;;;15.20;100.00
20394;BME280;10356;50.544;9.642;2023-08-06T01:26:49;97355.22;;;15.20;100.00
20394;BME280;10356;50.544;9.642;2023-08-06T01:29:21;97356.84;;;15.21;100.00
20394;BME280;10356;50.544;9.642;2023-08-06T01:31:50;97355.53;;;15.17;100.00
20394;BME280;10356;50.544;9.642;2023-08-06T01:34:21;97357.53;;;15.15;100.00
20394;BME280;10356;50.544;9.642;2023-08-06T01:36:48;97353.44;;;15.12;100.00
20394;BME280;10356;50.544;9.642;2023-08-06T01:39:16;97348.88;;;15.06;100.00
20394;BME280;10356;50.544;9.642;2023-08-06T01:41:46;97347.03;;;15.07;100.00
20394;BME280;10356;50.544;9.642;2023-08-06T01:44:12;97350.34;;;15.01;100.00
20394;BME280;10356;50.544;9.642;2023-08-06T01:46:39;97354.63;;;14.94;100.00
20394;BME280;10356;50.544;9.642;2023-08-06T01:49:05;97348.75;;;14.92;100.00
20394;BME280;10356;50.544;9.642;2023-08-06T01:51:32;97358.09;;;14.94;100.00
20394;BME280;10356;50.544;9.642;2023-08-06T01:53:58;97355.31;;;14.88;100.00
20394;BME280;10356;50.544;9.642;2023-08-06T01:56:26;97349.25;;;14.87;100.00
20394;BME280;10356;50.544;9.642;2023-08-06T01:58:53;97343.50;;;14.92;100.00
20394;BME280;10356;50.544;9.642;2023-08-06T02:01:19;97345.47;;;14.90;100.00
20394;BME280;10356;50.544;9.642;2023-08-06T02:03:46;97345.28;;;14.91;100.00
20394;BME280;10356;50.544;9.642;2023-08-06T02:06:12;97338.56;;;14.89;100.00
20394;BME280;10356;50.544;9.642;2023-08-06T02:08:38;97340.22;;;14.90;100.00
20394;BME280;10356;50.544;9.642;2023-08-06T02:11:05;97333.69;;;14.86;100.00
20394;BME280;10356;50.544;9.642;2023-08-06T02:13:33;97329.56;;;14.83;100.00
20394;BME280;10356;50.544;9.642;2023-08-06T02:15:59;97322.22;;;14.79;100.00
20394;BME280;10356;50.544;9.642;2023-08-06T02:18:26;97317.47;;;14.74;100.00
20394;BME280;10356;50.544;9.642;2023-08-06T02:20:56;97312.09;;;14.68;100.00
20394;BME280;10356;50.544;9.642;2023-08-06T02:23:23;97317.81;;;14.63;100.00
20394;BME280;10356;50.544;9.642;2023-08-06T02:25:56;97302.94;;;14.48;100.00
20394;BME280;10356;50.544;9.642;2023-08-06T02:28:23;97298.69;;;14.39;100.00
20394;BME280;10356;50.544;9.642;2023-08-06T02:30:51;97295.59;;;14.35;100.00
20394;BME280;10356;50.544;9.642;2023-08-06T02:33:18;97287.41;;;14.30;100.00
20394;BME280;10356;50.544;9.642;2023-08-06T02:35:45;97279.66;;;14.20;100.00
20394;BME280;10356;50.544;9.642;2023-08-06T02:38:11;97279.00;;;14.18;100.00
20394;BME280;10356;50.544;9.642;2023-08-06T02:40:43;97276.75;;;14.15;100.00
20394;BME280;10356;50.544;9.642;2023-08-06T02:43:09;97271.50;;;14.07;100.00
20394;BME280;10356;50.544;9.642;2023-08-06T02:45:36;97275.75;;;14.00;100.00
20394;BME280;10356;50.544;9.642;2023-08-06T02:48:04;97259.06;;;13.93;100.00
20394;BME280;10356;50.544;9.642;2023-08-06T02:50:30;97256.09;;;13.88;100.00
20394;BME280;10356;50.544;9.642;2023-08-06T02:52:57;97262.00;;;13.82;100.00
20394;BME280;10356;50.544;9.642;2023-08-06T02:55:23;97257.09;;;13.79;100.00
20394;BME280;10356;50.544;9.642;2023-08-06T02:57:50;97259.38;;;13.74;100.00
20394;BME280;10356;50.544;9.642;2023-08-06T03:00:16;97253.00;;;13.69;100.00
20394;BME280;10356;50.544;9.642;2023-08-06T03:02:43;97243.00;;;13.64;100.00
20394;BME280;10356;50.544;9.642;2023-08-06T03:05:11;97243.00;;;13.64;100.00
20394;BME280;10356;50.544;9.642;2023-08-06T03:07:37;97246.44;;;13.57;100.00
20394;BME280;10356;50.544;9.642;2023-08-06T03:10:04;97240.72;;;13.53;100.00
20394;BME280;10356;50.544;9.642;2023-08-06T03:12:31;97238.56;;;13.48;100.00
20394;BME280;10356;50.544;9.642;2023-08-06T03:14:57;97233.97;;;13.42;100.00
20394;BME280;10356;50.544;9.642;2023-08-06T03:17:23;97227.25;;;13.40;100.00
20394;BME280;10356;50.544;9.642;2023-08-06T03:19:50;97223.81;;;13.39;100.00
20394;BME280;10356;50.544;9.642;2023-08-06T03:22:18;97220.25;;;13.40;100.00
20394;BME280;10356;50.544;9.642;2023-08-06T03:24:44;97221.72;;;13.51;100.00
20394;BME280;10356;50.544;9.642;2023-08-06T03:27:11;97220.09;;;13.50;100.00
20394;BME280;10356;50.544;9.642;2023-08-06T03:29:37;97220.72;;;13.44;100.00
20394;BME280;10356;50.544;9.642;2023-08-06T03:32:04;97222.69;;;13.34;100.00
20394;BME280;10356;50.544;9.642;2023-08-06T03:34:30;97220.69;;;13.28;100.00
20394;BME280;10356;50.544;9.642;2023-08-06T03:36:57;97217.78;;;13.23;100.00
20394;BME280;10356;50.544;9.642;2023-08-06T03:39:25;97217.78;;;13.23;100.00
20394;BME280;10356;50.544;9.642;2023-08-06T03:41:52;97215.63;;;13.18;100.00
20394;BME280;10356;50.544;9.642;2023-08-06T03:44:18;97216.09;;;13.14;100.00
20394;BME280;10356;50.544;9.642;2023-08-06T03:46:44;97217.75;;;13.15;100.00
20394;BME280;10356;50.544;9.642;2023-08-06T03:49:11;97217.09;;;13.13;100.00
20394;BME280;10356;50.544;9.642;2023-08-06T03:51:37;97210.69;;;13.15;100.00
20394;BME280;10356;50.544;9.642;2023-08-06T03:54:04;97221.69;;;13.19;100.00
20394;BME280;10356;50.544;9.642;2023-08-06T03:56:32;97210.88;;;13.22;100.00
20394;BME280;10356;50.544;9.642;2023-08-06T03:58:58;97200.13;;;13.25;100.00
20394;BME280;10356;50.544;9.642;2023-08-06T04:01:25;97205.66;;;13.22;100.00
20394;BME280;10356;50.544;9.642;2023-08-06T04:03:51;97204.19;;;13.27;100.00
20394;BME280;10356;50.544;9.642;2023-08-06T04:06:17;97201.44;;;13.29;100.00
20394;BME280;10356;50.544;9.642;2023-08-06T04:08:44;97212.03;;;13.35;100.00
20394;BME280;10356;50.544;9.642;2023-08-06T04:11:10;97214.53;;;13.37;100.00
20394;BME280;10356;50.544;9.642;2023-08-06T04:13:42;97216.81;;;13.40;100.00
20394;BME280;10356;50.544;9.642;2023-08-06T04:16:08;97214.03;;;13.49;100.00
20394;BME280;10356;50.544;9.642;2023-08-06T04:18:35;97219.91;;;13.52;100.00
20394;BME280;10356;50.544;9.642;2023-08-06T04:21:01;97210.94;;;13.54;100.00
20394;BME280;10356;50.544;9.642;2023-08-06T04:23:28;97210.28;;;13.60;100.00
20394;BME280;10356;50.544;9.642;2023-08-06T04:25:56;97210.94;;;13.62;100.00
20394;BME280;10356;50.544;9.642;2023-08-06T04:28:23;97210.28;;;13.68;100.00
20394;BME280;10356;50.544;9.642;2023-08-06T04:30:50;97201.28;;;13.71;100.00
20394;BME280;10356;50.544;9.642;2023-08-06T04:33:18;97199.81;;;13.76;100.00
20394;BME280;10356;50.544;9.642;2023-08-06T04:35:45;97202.44;;;13.84;100.00
20394;BME280;10356;50.544;9.642;2023-08-06T04:38:11;97196.53;;;13.90;100.00
20394;BME280;10356;50.544;9.642;2023-08-06T04:40:38;97197.16;;;14.00;100.00
20394;BME280;10356;50.544;9.642;2023-08-06T04:43:04;97198.31;;;14.06;100.00
20394;BME280;10356;50.544;9.642;2023-08-06T04:45:31;97195.03;;;14.12;100.00
20394;BME280;10356;50.544;9.642;2023-08-06T04:47:59;97197.47;;;14.21;100.00
20394;BME280;10356;50.544;9.642;2023-08-06T04:50:25;97199.13;;;14.30;100.00
20394;BME280;10356;50.544;9.642;2023-08-06T04:52:51;97198.13;;;14.40;100.00
20394;BME280;10356;50.544;9.642;2023-08-06T04:55:18;97190.41;;;14.46;100.00
20394;BME280;10356;50.544;9.642;2023-08-06T04:57:44;97195.94;;;14.51;100.00
20394;BME280;10356;50.544;9.642;2023-08-06T05:00:12;97189.72;;;14.60;100.00
20394;BME280;10356;50.544;9.642;2023-08-06T05:02:39;97190.34;;;14.62;100.00
20394;BME280;10356;50.544;9.642;2023-08-06T05:05:07;97189.81;;;14.67;100.00
20394;BME280;10356;50.544;9.642;2023-08-06T05:07:33;97189.31;;;14.71;100.00
20394;BME280;10356;50.544;9.642;2023-08-06T05:10:00;97192.78;;;14.72;100.00
20394;BME280;10356;50.544;9.642;2023-08-06T05:12:28;97186.84;;;14.78;100.00
20394;BME280;10356;50.544;9.642;2023-08-06T05:14:54;97185.81;;;14.87;100.00
20394;BME280;10356;50.544;9.642;2023-08-06T05:17:21;97189.34;;;15.02;100.00
20394;BME280;10356;50.544;9.642;2023-08-06T05:19:48;97185.66;;;15.11;100.00
20394;BME280;10356;50.544;9.642;2023-08-06T05:22:16;97183.44;;;15.31;100.00
20394;BME280;10356;50.544;9.642;2023-08-06T05:24:42;97183.81;;;15.50;100.00
20394;BME280;10356;50.544;9.642;2023-08-06T05:27:09;97187.78;;;15.69;100.00
20394;BME280;10356;50.544;9.642;2023-08-06T05:29:35;97181.56;;;15.84;100.00
20394;BME280;10356;50.544;9.642;2023-08-06T05:32:02;97188.47;;;15.85;100.00
20394;BME280;10356;50.544;9.642;2023-08-06T05:34:28;97186.69;;;16.01;100.00
20394;BME280;10356;50.544;9.642;2023-08-06T05:36:55;97189.34;;;16.15;100.00
20394;BME280;10356;50.544;9.642;2023-08-06T05:39:23;97188.25;;;16.24;100.00
20394;BME280;10356;50.544;9.642;2023-08-06T05:41:49;97190.34;;;16.29;100.00
20394;BME280;10356;50.544;9.642;2023-08-06T05:44:17;97190.09;;;16.24;100.00
20394;BME280;10356;50.544;9.642;2023-08-06T05:46:44;97192.44;;;16.33;100.00
20394;BME280;10356;50.544;9.642;2023-08-06T05:49:10;97198.34;;;16.35;100.00
20394;BME280;10356;50.544;9.642;2023-08-06T05:51:38;97195.81;;;16.42;100.00
20394;BME280;10356;50.544;9.642;2023-08-06T05:54:05;97188.56;;;16.44;100.00
20394;BME280;10356;50.544;9.642;2023-08-06T05:56:32;97187.84;;;16.50;100.00
20394;BME280;10356;50.544;9.642;2023-08-06T05:58:59;97194.84;;;16.57;100.00
20394;BME280;10356;50.544;9.642;2023-08-06T06:01:25;97192.56;;;16.69;100.00
20394;BME280;10356;50.544;9.642;2023-08-06T06:03:52;97188.94;;;16.70;100.00
20394;BME280;10356;50.544;9.642;2023-08-06T06:06:18;97194.94;;;16.64;100.00
20394;BME280;10356;50.544;9.642;2023-08-06T06:08:45;97194.19;;;16.70;100.00
20394;BME280;10356;50.544;9.642;2023-08-06T06:11:12;97186.22;;;16.63;100.00
20394;BME280;10356;50.544;9.642;2023-08-06T06:13:40;97199.19;;;16.65;100.00
20394;BME280;10356;50.544;9.642;2023-08-06T06:16:06;97200.72;;;16.59;100.00
20394;BME280;10356;50.544;9.642;2023-08-06T06:18:32;97197.28;;;16.59;100.00
20394;BME280;10356;50.544;9.642;2023-08-06T06:20:59;97192.31;;;16.64;100.00
20394;BME280;10356;50.544;9.642;2023-08-06T06:23:25;97188.56;;;16.73;100.00
20394;BME280;10356;50.544;9.642;2023-08-06T06:25:52;97191.00;;;16.89;98.51
20394;BME280;10356;50.544;9.642;2023-08-06T06:28:18;97189.34;;;17.03;98.24
20394;BME280;10356;50.544;9.642;2023-08-06T06:30:47;97191.56;;;17.20;97.29
20394;BME280;10356;50.544;9.642;2023-08-06T06:33:14;97192.28;;;17.29;97.23
20394;BME280;10356;50.544;9.642;2023-08-06T06:35:40;97190.13;;;17.53;94.66
20394;BME280;10356;50.544;9.642;2023-08-06T06:38:07;97181.03;;;17.56;93.78
20394;BME280;10356;50.544;9.642;2023-08-06T06:40:33;97180.28;;;17.47;94.80
20394;BME280;10356;50.544;9.642;2023-08-06T06:43:00;97182.34;;;17.67;94.84
20394;BME280;10356;50.544;9.642;2023-08-06T06:45:26;97176.53;;;17.99;93.18
20394;BME280;10356;50.544;9.642;2023-08-06T06:47:54;97170.50;;;18.05;87.74
20394;BME280;10356;50.544;9.642;2023-08-06T06:50:20;97171.50;;;18.31;88.63
20394;BME280;10356;50.544;9.642;2023-08-06T06:52:47;97169.44;;;18.27;87.71
20394;BME280;10356;50.544;9.642;2023-08-06T06:55:13;97166.94;;;18.19;87.45
20394;BME280;10356;50.544;9.642;2023-08-06T06:57:40;97178.16;;;18.00;87.09
20394;BME280;10356;50.544;9.642;2023-08-06T07:00:07;97171.16;;;17.86;88.37
20394;BME280;10356;50.544;9.642;2023-08-06T07:02:33;97168.06;;;18.03;87.66
20394;BME280;10356;50.544;9.642;2023-08-06T07:05:01;97164.97;;;18.00;86.91
20394;BME280;10356;50.544;9.642;2023-08-06T07:07:28;97173.84;;;17.92;88.03
20394;BME280;10356;50.544;9.642;2023-08-06T07:09:55;97166.22;;;17.76;88.67
20394;BME280;10356;50.544;9.642;2023-08-06T07:12:21;97166.22;;;17.76;88.48
20394;BME280;10356;50.544;9.642;2023-08-06T07:14:49;97164.97;;;17.72;88.78
20394;BME280;10356;50.544;9.642;2023-08-06T07:17:15;97167.03;;;17.77;88.65
20394;BME280;10356;50.544;9.642;2023-08-06T07:19:42;97169.09;;;17.60;89.10
20394;BME280;10356;50.544;9.642;2023-08-06T07:22:09;97163.63;;;17.61;89.52
20394;BME280;10356;50.544;9.642;2023-08-06T07:24:36;97173.47;;;17.32;93.30
20394;BME280;10356;50.544;9.642;2023-08-06T07:27:03;97170.47;;;16.99;96.13
20394;BME280;10356;50.544;9.642;2023-08-06T07:29:29;97173.41;;;16.60;99.36
20394;BME280;10356;50.544;9.642;2023-08-06T07:31:57;97176.03;;;16.46;100.00
20394;BME280;10356;50.544;9.642;2023-08-06T07:34:24;97171.03;;;16.07;100.00
20394;BME280;10356;50.544;9.642;2023-08-06T07:36:52;97174.94;;;16.26;100.00
20394;BME280;10356;50.544;9.642;2023-08-06T07:39:21;97177.22;;;16.43;100.00
20394;BME280;10356;50.544;9.642;2023-08-06T07:41:49;97168.50;;;16.43;100.00
20394;BME280;10356;50.544;9.642;2023-08-06T07:44:15;97173.75;;;16.43;100.00
20394;BME280;10356;50.544;9.642;2023-08-06T07:46:42;97172.63;;;16.60;100.00
20394;BME280;10356;50.544;9.642;2023-08-06T07:49:09;97165.91;;;16.72;100.00
20394;BME280;10356;50.544;9.642;2023-08-06T07:51:37;97169.31;;;16.72;100.00
20394;BME280;10356;50.544;9.642;2023-08-06T07:54:04;97174.88;;;17.13;100.00
20394;BME280;10356;50.544;9.642;2023-08-06T07:56:32;97160.16;;;17.54;100.00
20394;BME280;10356;50.544;9.642;2023-08-06T07:59:08;97173.84;;;17.92;99.30
20394;BME280;10356;50.544;9.642;2023-08-06T08:01:35;97166.28;;;17.83;96.74
20394;BME280;10356;50.544;9.642;2023-08-06T08:04:02;97156.91;;;18.01;96.17
20394;BME280;10356;50.544;9.642;2023-08-06T08:06:30;97158.38;;;18.10;95.58
20394;BME280;10356;50.544;9.642;2023-08-06T08:08:56;97160.25;;;18.44;95.16
20394;BME280;10356;50.544;9.642;2023-08-06T08:11:23;97159.50;;;18.57;93.18
20394;BME280;10356;50.544;9.642;2023-08-06T08:13:51;97156.25;;;18.27;90.72
20394;BME280;10356;50.544;9.642;2023-08-06T08:16:18;97158.25;;;18.25;92.07
20394;BME280;10356;50.544;9.642;2023-08-06T08:18:47;97159.75;;;18.34;93.00
20394;BME280;10356;50.544;9.642;2023-08-06T08:21:13;97164.88;;;18.14;92.49
20394;BME280;10356;50.544;9.642;2023-08-06T08:23:40;97166.69;;;17.86;91.27
20394;BME280;10356;50.544;9.642;2023-08-06T08:26:07;97164.78;;;17.52;93.61
20394;BME280;10356;50.544;9.642;2023-08-06T08:28:34;97161.63;;;17.63;95.49
20394;BME280;10356;50.544;9.642;2023-08-06T08:31:10;97161.00;;;17.40;94.55
20394;BME280;10356;50.544;9.642;2023-08-06T08:33:36;97154.78;;;17.27;95.54
20394;BME280;10356;50.544;9.642;2023-08-06T08:36:04;97156.97;;;17.23;99.43
20394;BME280;10356;50.544;9.642;2023-08-06T08:38:31;97158.41;;;17.26;99.91
20394;BME280;10356;50.544;9.642;2023-08-06T08:40:58;97153.56;;;17.29;100.00
20394;BME280;10356;50.544;9.642;2023-08-06T08:43:25;97156.78;;;17.46;100.00
20394;BME280;10356;50.544;9.642;2023-08-06T08:45:54;97154.34;;;17.66;100.00
20394;BME280;10356;50.544;9.642;2023-08-06T08:48:25;97153.53;;;17.86;97.02
20394;BME280;10356;50.544;9.642;2023-08-06T08:50:53;97155.03;;;17.95;97.42
20394;BME280;10356;50.544;9.642;2023-08-06T08:53:21;97151.78;;;18.00;93.76
20394;BME280;10356;50.544;9.642;2023-08-06T08:55:48;97145.84;;;18.19;94.74
20394;BME280;10356;50.544;9.642;2023-08-06T08:58:15;97155.69;;;18.31;93.23
20394;BME280;10356;50.544;9.642;2023-08-06T09:00:42;97143.94;;;18.34;92.31
20394;BME280;10356;50.544;9.642;2023-08-06T09:03:09;97142.88;;;18.56;92.46
20394;BME280;10356;50.544;9.642;2023-08-06T09:05:40;97143.63;;;18.97;91.23
20394;BME280;10356;50.544;9.642;2023-08-06T09:08:11;97144.34;;;18.72;88.48
20394;BME280;10356;50.544;9.642;2023-08-06T09:10:39;97147.06;;;18.44;87.79
20394;BME280;10356;50.544;9.642;2023-08-06T09:13:07;97147.44;;;18.13;91.26
20394;BME280;10356;50.544;9.642;2023-08-06T09:15:34;97144.72;;;18.28;90.42
20394;BME280;10356;50.544;9.642;2023-08-06T09:18:09;97147.38;;;18.34;87.29
20394;BME280;10356;50.544;9.642;2023-08-06T09:20:38;97148.97;;;18.29;90.30
20394;BME280;10356;50.544;9.642;2023-08-06T09:23:07;97146.78;;;18.39;89.54
20394;BME280;10356;50.544;9.642;2023-08-06T09:25:37;97151.81;;;18.27;89.43
20394;BME280;10356;50.544;9.642;2023-08-06T09:28:04;97153.63;;;18.27;88.88
20394;BME280;10356;50.544;9.642;2023-08-06T09:30:32;97151.28;;;18.11;90.22
20394;BME280;10356;50.544;9.642;2023-08-06T09:32:59;97147.66;;;18.18;90.20
20394;BME280;10356;50.544;9.642;2023-08-06T09:35:28;97152.53;;;18.15;91.40
20394;BME280;10356;50.544;9.642;2023-08-06T09:38:05;97148.44;;;17.85;94.35
20394;BME280;10356;50.544;9.642;2023-08-06T09:40:33;97157.03;;;17.93;95.65
20394;BME280;10356;50.544;9.642;2023-08-06T09:42:59;97142.19;;;18.13;95.72
20394;BME280;10356;50.544;9.642;2023-08-06T09:45:30;97145.66;;;18.20;93.36
20394;BME280;10356;50.544;9.642;2023-08-06T09:47:57;97146.56;;;18.06;91.85
20394;BME280;10356;50.544;9.642;2023-08-06T09:50:28;97136.94;;;18.20;94.44
20394;BME280;10356;50.544;9.642;2023-08-06T09:52:57;97136.19;;;18.26;95.37
20394;BME280;10356;50.544;9.642;2023-08-06T09:55:24;97140.53;;;18.40;92.28
20394;BME280;10356;50.544;9.642;2023-08-06T09:57:52;97128.09;;;18.75;90.79
20394;BME280;10356;50.544;9.642;2023-08-06T10:00:19;97132.50;;;19.08;91.65
20394;BME280;10356;50.544;9.642;2023-08-06T10:02:46;97129.75;;;19.36;88.34
20394;BME280;10356;50.544;9.642;2023-08-06T10:05:14;97127.34;;;19.87;88.29
20394;BME280;10356;50.544;9.642;2023-08-06T10:07:42;97117.56;;;20.20;85.52
20394;BME280;10356;50.544;9.642;2023-08-06T10:10:11;97114.22;;;20.57;84.42
20394;BME280;10356;50.544;9.642;2023-08-06T10:12:40;97115.19;;;21.14;84.79
20394;BME280;10356;50.544;9.642;2023-08-06T10:15:12;97114.19;;;21.15;78.69
20394;BME280;10356;50.544;9.642;2023-08-06T10:17:41;97112.31;;;20.71;77.65
20394;BME280;10356;50.544;9.642;2023-08-06T10:20:08;97116.94;;;20.05;82.36
20394;BME280;10356;50.544;9.642;2023-08-06T10:22:36;97115.75;;;19.81;86.11
20394;BME280;10356;50.544;9.642;2023-08-06T10:25:03;97109.03;;;19.98;86.34
20394;BME280;10356;50.544;9.642;2023-08-06T10:27:34;97105.72;;;20.16;84.22
20394;BME280;10356;50.544;9.642;2023-08-06T10:30:20;97101.28;;;20.30;81.62
20394;BME280;10356;50.544;9.642;2023-08-06T10:32:48;97106.88;;;20.53;83.93
20394;BME280;10356;50.544;9.642;2023-08-06T10:35:28;97104.09;;;20.28;79.63
20394;BME280;10356;50.544;9.642;2023-08-06T10:37:58;97102.50;;;19.94;79.31
20394;BME280;10356;50.544;9.642;2023-08-06T10:40:25;97099.16;;;20.51;79.07
20394;BME280;10356;50.544;9.642;2023-08-06T10:42:53;97101.81;;;20.96;77.89
20394;BME280;10356;50.544;9.642;2023-08-06T10:45:20;97095.72;;;21.02;75.37
20394;BME280;10356;50.544;9.642;2023-08-06T10:47:49;97096.06;;;21.12;73.23
20394;BME280;10356;50.544;9.642;2023-08-06T10:50:17;97089.75;;;21.13;73.78
20394;BME280;10356;50.544;9.642;2023-08-06T10:52:44;97093.06;;;21.02;73.76
20394;BME280;10356;50.544;9.642;2023-08-06T10:55:10;97089.25;;;21.29;73.88
20394;BME280;10356;50.544;9.642;2023-08-06T10:57:37;97092.41;;;21.13;73.65
20394;BME280;10356;50.544;9.642;2023-08-06T11:00:07;97097.25;;;20.71;73.58
20394;BME280;10356;50.544;9.642;2023-08-06T11:02:34;97093.84;;;20.64;74.79
20394;BME280;10356;50.544;9.642;2023-08-06T11:05:07;97091.56;;;20.68;73.56
20394;BME280;10356;50.544;9.642;2023-08-06T11:07:34;97084.00;;;20.78;73.33
20394;BME280;10356;50.544;9.642;2023-08-06T11:10:02;97087.78;;;21.33;70.45
20394;BME280;10356;50.544;9.642;2023-08-06T11:12:30;97082.09;;;21.79;68.30
20394;BME280;10356;50.544;9.642;2023-08-06T11:14:56;97082.44;;;22.31;66.03
20394;BME280;10356;50.544;9.642;2023-08-06T11:17:24;97079.03;;;22.42;64.04
20394;BME280;10356;50.544;9.642;2023-08-06T11:19:51;97074.59;;;22.54;65.00
20394;BME280;10356;50.544;9.642;2023-08-06T11:22:17;97076.84;;;22.76;63.69
20394;BME280;10356;50.544;9.642;2023-08-06T11:24:44;97082.47;;;22.68;65.42
20394;BME280;10356;50.544;9.642;2023-08-06T11:27:11;97073.59;;;22.55;63.11
20394;BME280;10356;50.544;9.642;2023-08-06T11:29:38;97069.97;;;22.50;64.24
20394;BME280;10356;50.544;9.642;2023-08-06T11:32:05;97077.06;;;22.74;62.58
20394;BME280;10356;50.544;9.642;2023-08-06T11:34:33;97064.81;;;22.73;61.59
20394;BME280;10356;50.544;9.642;2023-08-06T11:37:00;97060.78;;;23.00;61.64
20394;BME280;10356;50.544;9.642;2023-08-06T11:39:27;97060.44;;;23.38;59.46
20394;BME280;10356;50.544;9.642;2023-08-06T11:41:53;97062.31;;;23.08;61.41
20394;BME280;10356;50.544;9.642;2023-08-06T11:44:21;97066.59;;;22.61;63.14
20394;BME280;10356;50.544;9.642;2023-08-06T11:46:50;97075.16;;;22.63;61.58
20394;BME280;10356;50.544;9.642;2023-08-06T11:49:17;97071.88;;;22.25;63.41
20394;BME280;10356;50.544;9.642;2023-08-06T11:51:47;97067.75;;;22.29;65.99
20394;BME280;10356;50.544;9.642;2023-08-06T11:54:14;97061.63;;;22.28;63.14
20394;BME280;10356;50.544;9.642;2023-08-06T11:56:40;97069.97;;;22.14;63.62
20394;BME280;10356;50.544;9.642;2023-08-06T11:59:08;97067.19;;;21.84;65.27
20394;BME280;10356;50.544;9.642;2023-08-06T12:01:35;97067.84;;;21.55;67.38
20394;BME280;10356;50.544;9.642;2023-08-06T12:04:04;97070.41;;;20.61;74.49
20394;BME280;10356;50.544;9.642;2023-08-06T12:06:30;97068.13;;;20.07;75.51
20394;BME280;10356;50.544;9.642;2023-08-06T12:08:58;97078.13;;;19.73;83.14
20394;BME280;10356;50.544;9.642;2023-08-06T12:11:25;97078.13;;;19.60;87.42
20394;BME280;10356;50.544;9.642;2023-08-06T12:13:51;97075.50;;;19.47;88.00
20394;BME280;10356;50.544;9.642;2023-08-06T12:16:18;97075.69;;;19.39;86.69
20394;BME280;10356;50.544;9.642;2023-08-06T12:18:47;97075.25;;;19.28;88.52
20394;BME280;10356;50.544;9.642;2023-08-06T12:21:14;97076.06;;;19.22;90.51
20394;BME280;10356;50.544;9.642;2023-08-06T12:23:41;97077.88;;;19.15;93.13
20394;BME280;10356;50.544;9.642;2023-08-06T12:26:08;97066.56;;;19.35;92.70
20394;BME280;10356;50.544;9.642;2023-08-06T12:28:35;97074.84;;;19.18;90.85
20394;BME280;10356;50.544;9.642;2023-08-06T12:31:02;97073.59;;;19.21;91.85
20394;BME280;10356;50.544;9.642;2023-08-06T12:33:28;97078.91;;;19.14;92.29
20394;BME280;10356;50.544;9.642;2023-08-06T12:35:54;97082.13;;;19.10;93.64
20394;BME280;10356;50.544;9.642;2023-08-06T12:38:23;97081.47;;;18.88;92.06
20394;BME280;10356;50.544;9.642;2023-08-06T12:40:49;97088.34;;;18.76;92.28
20394;BME280;10356;50.544;9.642;2023-08-06T12:43:17;97089.75;;;18.79;93.08
20394;BME280;10356;50.544;9.642;2023-08-06T12:45:43;97084.94;;;18.95;94.25
20394;BME280;10356;50.544;9.642;2023-08-06T12:48:10;97088.59;;;18.94;93.10
20394;BME280;10356;50.544;9.642;2023-08-06T12:50:36;97086.72;;;18.75;91.24
20394;BME280;10356;50.544;9.642;2023-08-06T12:53:03;97085.91;;;18.81;91.57
20394;BME280;10356;50.544;9.642;2023-08-06T12:55:30;97078.22;;;18.86;90.90